Time;durP1;ratioP1;P1;durP2;ratioP2;P2;SDS_P1;SDS_P2;PMS_P1;PMS_P2;Temp;Humidity;BMP_temperature;BMP_pressure;BME280_temperature;BME280_humidity;BME280_pressure;Samples;Min_cycle;Max_cycle;Signal;HPM_P1;HPM_P2
2023/03/03 00:00:46;;;;;;;26.13;14.40;;;0.80;99.90;;;;;;5035542;28;20538;-63
2023/03/03 00:03:17;;;;;;;32.47;16.50;;;0.80;99.90;;;;;;5035089;28;20490;-64
2023/03/03 00:05:44;;;;;;;37.30;18.57;;;0.80;99.90;;;;;;5035505;28;20451;-64
2023/03/03 00:08:11;;;;;;;32.60;15.90;;;0.70;99.90;;;;;;5035254;28;20789;-64
2023/03/03 00:10:38;;;;;;;27.80;15.00;;;0.70;99.90;;;;;;5035227;28;20455;-64
2023/03/03 00:13:12;;;;;;;27.37;13.53;;;0.70;99.90;;;;;;5035157;28;20456;-64
2023/03/03 00:15:39;;;;;;;25.63;15.10;;;0.70;99.90;;;;;;5033658;28;20523;-64
2023/03/03 00:18:21;;;;;;;30.73;15.77;;;0.70;99.90;;;;;;5034601;28;20807;-64
2023/03/03 00:20:52;;;;;;;55.30;25.03;;;0.70;99.90;;;;;;5035806;28;20527;-63
2023/03/03 00:23:29;;;;;;;39.03;19.60;;;0.70;99.90;;;;;;5034773;28;20468;-64
2023/03/03 00:25:58;;;;;;;40.73;19.23;;;0.70;99.90;;;;;;5034916;28;20463;-64
2023/03/03 00:28:28;;;;;;;24.83;13.90;;;0.80;99.90;;;;;;5034581;28;20511;-64
2023/03/03 00:30:56;;;;;;;23.73;14.37;;;0.60;99.90;;;;;;5034828;28;20803;-64
2023/03/03 00:33:31;;;;;;;26.17;13.80;;;0.70;99.90;;;;;;5034487;28;20459;-64
2023/03/03 00:36:07;;;;;;;27.70;14.90;;;0.80;99.90;;;;;;5034732;28;20443;-64
2023/03/03 00:38:35;;;;;;;24.97;14.00;;;0.70;99.90;;;;;;5034839;28;20531;-64
2023/03/03 00:41:04;;;;;;;30.63;14.60;;;0.80;99.90;;;;;;5034682;28;20467;-64
2023/03/03 00:43:35;;;;;;;27.17;15.20;;;0.90;99.90;;;;;;5034694;28;20563;-64
2023/03/03 00:46:02;;;;;;;42.93;18.47;;;0.90;99.90;;;;;;5034707;28;20451;-64
2023/03/03 00:48:41;;;;;;;34.40;18.37;;;1.00;99.90;;;;;;5034725;28;20523;-64
2023/03/03 00:51:21;;;;;;;28.53;13.80;;;1.00;99.90;;;;;;5034676;28;20444;-64
2023/03/03 00:53:49;;;;;;;25.07;14.37;;;1.00;99.90;;;;;;5034699;28;20440;-64
2023/03/03 00:56:16;;;;;;;29.50;15.70;;;1.10;99.90;;;;;;5034407;28;20522;-64
2023/03/03 00:58:43;;;;;;;23.00;13.97;;;1.00;99.90;;;;;;5034865;28;20456;-64
2023/03/03 01:01:10;;;;;;;29.27;14.57;;;0.90;99.90;;;;;;5034732;28;20460;-64
2023/03/03 01:03:38;;;;;;;33.07;15.57;;;0.90;99.90;;;;;;5034565;28;20587;-64
2023/03/03 01:06:05;;;;;;;28.10;14.10;;;0.90;99.90;;;;;;5034685;28;20554;-64
2023/03/03 01:08:32;;;;;;;29.40;15.10;;;0.80;99.90;;;;;;5034720;28;20466;-64
2023/03/03 01:11:03;;;;;;;24.60;13.70;;;0.70;99.90;;;;;;5034655;28;20466;-62
2023/03/03 01:13:32;;;;;;;25.77;14.13;;;0.50;99.90;;;;;;5034561;28;20524;-63
2023/03/03 01:16:00;;;;;;;24.10;13.23;;;0.50;99.90;;;;;;5034225;28;20586;-64
2023/03/03 01:18:27;;;;;;;32.50;15.90;;;0.60;99.90;;;;;;5034497;28;20543;-64
2023/03/03 01:20:56;;;;;;;31.03;15.40;;;0.60;99.90;;;;;;5034470;28;20459;-64
2023/03/03 01:23:22;;;;;;;28.27;16.27;;;0.70;99.90;;;;;;5034401;28;20494;-64
2023/03/03 01:25:49;;;;;;;28.77;14.97;;;0.60;99.90;;;;;;5035438;28;20478;-62
2023/03/03 01:28:16;;;;;;;32.37;15.10;;;0.70;99.90;;;;;;5037986;28;20869;-64
2023/03/03 01:30:43;;;;;;;31.00;16.13;;;0.80;99.90;;;;;;5038135;28;20526;-64
2023/03/03 01:33:10;;;;;;;31.63;15.30;;;0.80;99.90;;;;;;5038194;28;20633;-64
2023/03/03 01:35:39;;;;;;;27.20;15.90;;;0.80;99.90;;;;;;5037904;28;20523;-64
2023/03/03 01:38:07;;;;;;;33.70;16.17;;;0.80;99.90;;;;;;5037772;28;20908;-64
2023/03/03 01:40:34;;;;;;;29.27;15.30;;;0.80;99.90;;;;;;5037752;28;20574;-64
2023/03/03 01:43:01;;;;;;;27.13;16.23;;;0.80;99.90;;;;;;5037528;28;20461;-64
2023/03/03 01:45:30;;;;;;;31.00;16.83;;;0.90;99.90;;;;;;5037702;28;20939;-63
2023/03/03 01:48:01;;;;;;;26.97;15.90;;;1.00;99.90;;;;;;5037581;28;20456;-64
2023/03/03 01:50:33;;;;;;;32.70;17.40;;;0.90;99.90;;;;;;5038057;28;20531;-64
2023/03/03 01:53:03;;;;;;;33.90;17.23;;;0.80;99.90;;;;;;5037537;28;20897;-64
2023/03/03 01:55:35;;;;;;;29.77;15.70;;;0.70;99.90;;;;;;5037738;28;20955;-64
2023/03/03 01:58:05;;;;;;;36.00;17.70;;;0.70;99.90;;;;;;5037728;28;20444;-64
2023/03/03 02:00:34;;;;;;;29.70;16.20;;;0.70;99.90;;;;;;5037691;28;20448;-64
2023/03/03 02:03:01;;;;;;;32.17;15.87;;;0.80;99.90;;;;;;5037222;28;20547;-64
2023/03/03 02:05:28;;;;;;;28.07;16.23;;;0.80;99.90;;;;;;5037266;28;20479;-64
2023/03/03 02:07:55;;;;;;;28.60;16.60;;;0.80;99.90;;;;;;5037448;28;20829;-64
2023/03/03 02:10:23;;;;;;;29.50;15.70;;;0.80;99.90;;;;;;5037455;28;20539;-64
2023/03/03 02:12:53;;;;;;;27.80;16.83;;;0.70;99.90;;;;;;5037087;28;20460;-64
2023/03/03 02:15:23;;;;;;;32.40;16.80;;;0.80;99.90;;;;;;5037031;28;20480;-64
2023/03/03 02:17:52;;;;;;;32.57;17.37;;;0.90;99.90;;;;;;5036980;28;20924;-64
2023/03/03 02:20:30;;;;;;;33.10;18.37;;;0.80;99.90;;;;;;5036994;28;20466;-64
2023/03/03 02:23:05;;;;;;;27.50;16.20;;;0.70;99.90;;;;;;5037190;28;20454;-64
2023/03/03 02:25:39;;;;;;;27.47;16.03;;;0.80;99.90;;;;;;5036941;28;20463;-63
2023/03/03 02:28:08;;;;;;;31.00;15.90;;;0.80;99.90;;;;;;5037048;28;20447;-64
2023/03/03 02:30:38;;;;;;;30.43;18.17;;;0.80;99.90;;;;;;5037098;28;20896;-64
2023/03/03 02:33:05;;;;;;;31.50;17.43;;;0.80;99.90;;;;;;5036702;28;20462;-65
2023/03/03 02:35:34;;;;;;;31.20;16.97;;;0.90;99.90;;;;;;5036930;28;20456;-64
2023/03/03 02:38:15;;;;;;;32.70;17.80;;;0.80;99.90;;;;;;5035853;28;20455;-64
2023/03/03 02:40:49;;;;;;;31.87;18.40;;;0.80;99.90;;;;;;5037031;28;20455;-64
2023/03/03 02:43:23;;;;;;;31.70;17.33;;;0.70;99.90;;;;;;5037136;28;20479;-64
2023/03/03 02:45:50;;;;;;;31.70;17.80;;;0.70;99.90;;;;;;5037500;28;20523;-64
2023/03/03 02:48:17;;;;;;;31.13;17.20;;;0.70;99.90;;;;;;5037099;28;20545;-63
2023/03/03 02:50:44;;;;;;;28.07;16.07;;;0.80;99.90;;;;;;5037349;28;20452;-64
2023/03/03 02:53:10;;;;;;;29.40;16.73;;;0.60;99.90;;;;;;5037230;28;20814;-64
2023/03/03 02:55:37;;;;;;;26.57;16.17;;;0.50;99.90;;;;;;5037056;28;20444;-64
2023/03/03 02:58:04;;;;;;;27.70;16.50;;;0.50;99.90;;;;;;5037285;28;20546;-63
2023/03/03 03:00:33;;;;;;;29.47;16.17;;;0.50;99.90;;;;;;5037255;28;20482;-63
2023/03/03 03:02:59;;;;;;;31.97;18.10;;;0.30;99.90;;;;;;5037275;28;20551;-63
2023/03/03 03:05:26;;;;;;;31.47;16.80;;;0.30;99.90;;;;;;5037673;28;20804;-63
2023/03/03 03:07:53;;;;;;;32.63;17.50;;;0.30;99.90;;;;;;5037196;28;20983;-62
2023/03/03 03:10:20;;;;;;;28.87;17.40;;;0.40;99.90;;;;;;5036850;28;20546;-62
2023/03/03 03:12:47;;;;;;;37.43;18.00;;;0.40;99.90;;;;;;5037005;28;20547;-64
2023/03/03 03:15:14;;;;;;;31.30;17.90;;;0.30;99.90;;;;;;5036390;28;20480;-64
2023/03/03 03:17:43;;;;;;;29.70;17.27;;;0.40;99.90;;;;;;5036985;28;20464;-63
2023/03/03 03:20:11;;;;;;;30.50;17.20;;;0.40;99.90;;;;;;5036461;28;20459;-64
2023/03/03 03:22:38;;;;;;;38.73;17.33;;;0.40;99.90;;;;;;5037063;28;20466;-63
2023/03/03 03:25:05;;;;;;;34.87;17.50;;;0.30;99.90;;;;;;5036582;28;20494;-65
2023/03/03 03:27:32;;;;;;;32.37;17.10;;;0.30;99.90;;;;;;5036194;28;20455;-64
2023/03/03 03:29:59;;;;;;;37.77;17.03;;;0.30;99.90;;;;;;5036100;28;20460;-64
2023/03/03 03:32:26;;;;;;;30.83;15.70;;;0.30;99.90;;;;;;5035958;28;20529;-65
2023/03/03 03:34:54;;;;;;;30.77;16.73;;;0.40;99.90;;;;;;5036179;28;20451;-64
2023/03/03 03:37:21;;;;;;;28.30;14.27;;;0.40;99.90;;;;;;5035770;28;20543;-64
2023/03/03 03:39:48;;;;;;;36.70;17.43;;;0.40;99.90;;;;;;5035701;28;20456;-64
2023/03/03 03:42:15;;;;;;;32.30;15.73;;;0.40;99.90;;;;;;5036169;28;20455;-64
2023/03/03 03:44:42;;;;;;;29.47;15.63;;;0.50;99.90;;;;;;5035538;28;20567;-64
2023/03/03 03:47:09;;;;;;;34.60;16.23;;;0.40;99.90;;;;;;5035550;28;20939;-64
2023/03/03 03:49:36;;;;;;;35.90;15.77;;;0.30;99.90;;;;;;5035203;28;20980;-64
2023/03/03 03:52:04;;;;;;;28.63;16.27;;;0.20;99.90;;;;;;5035462;28;20543;-64
2023/03/03 03:54:31;;;;;;;33.90;15.33;;;0.30;99.90;;;;;;5055249;28;20781;-64
2023/03/03 03:56:58;;;;;;;31.73;17.03;;;0.30;99.90;;;;;;5055105;28;20455;-64
2023/03/03 03:59:25;;;;;;;26.60;14.90;;;0.30;99.90;;;;;;5055177;28;20489;-64
2023/03/03 04:01:51;;;;;;;32.93;16.07;;;0.20;99.90;;;;;;5055020;28;20487;-64
2023/03/03 04:04:18;;;;;;;33.10;17.13;;;0.10;99.90;;;;;;5054769;28;20493;-64
2023/03/03 04:06:45;;;;;;;28.33;14.90;;;0.00;99.90;;;;;;5054999;28;20494;-64
2023/03/03 04:09:13;;;;;;;34.40;15.53;;;0.10;99.90;;;;;;5055339;28;20541;-64
2023/03/03 04:11:40;;;;;;;35.43;15.37;;;0.20;99.90;;;;;;5054978;28;20546;-65
2023/03/03 04:14:07;;;;;;;29.97;16.07;;;0.00;99.90;;;;;;5054653;28;20534;-63
2023/03/03 04:16:34;;;;;;;27.90;15.73;;;0.10;99.90;;;;;;5055061;28;20449;-63
2023/03/03 04:19:01;;;;;;;27.50;15.70;;;0.10;99.90;;;;;;5054749;28;20934;-61
2023/03/03 04:21:28;;;;;;;29.80;15.27;;;0.10;99.90;;;;;;5054895;28;20542;-64
2023/03/03 04:23:55;;;;;;;34.53;17.40;;;0.10;99.90;;;;;;5054487;28;20466;-64
2023/03/03 04:26:23;;;;;;;30.97;15.10;;;0.10;99.90;;;;;;5054952;28;20501;-65
2023/03/03 04:28:50;;;;;;;28.33;14.30;;;0.20;99.90;;;;;;5054882;28;20465;-64
2023/03/03 04:31:18;;;;;;;32.80;15.20;;;0.10;99.90;;;;;;5054861;28;20558;-63
2023/03/03 04:33:45;;;;;;;28.57;14.50;;;0.00;99.90;;;;;;5053869;28;20466;-64
2023/03/03 04:36:12;;;;;;;32.57;14.80;;;0.00;99.90;;;;;;5047559;28;20559;-64
2023/03/03 04:38:39;;;;;;;33.67;16.80;;;0.00;99.90;;;;;;5034619;28;20456;-64
2023/03/03 04:41:06;;;;;;;28.47;13.00;;;-0.10;99.90;;;;;;5034595;28;20467;-64
2023/03/03 04:43:34;;;;;;;40.60;13.77;;;-0.10;99.90;;;;;;5034518;28;20466;-64
2023/03/03 04:46:01;;;;;;;41.40;15.40;;;-0.20;99.90;;;;;;5034450;28;21037;-62
2023/03/03 04:48:28;;;;;;;35.17;14.30;;;-0.30;99.90;;;;;;5034440;28;20507;-64
2023/03/03 04:50:55;;;;;;;26.67;13.33;;;-0.40;99.90;;;;;;5034306;28;20466;-63
2023/03/03 04:53:22;;;;;;;29.13;15.00;;;-0.50;99.90;;;;;;5034406;28;20466;-62
2023/03/03 04:55:51;;;;;;;28.33;14.13;;;-0.50;99.90;;;;;;5034474;28;20814;-62
2023/03/03 04:58:19;;;;;;;23.93;13.43;;;-0.50;99.90;;;;;;5034434;28;20559;-64
2023/03/03 05:00:47;;;;;;;30.80;14.70;;;-0.50;99.90;;;;;;5035527;28;20459;-63
2023/03/03 05:03:14;;;;;;;25.70;14.27;;;-0.40;99.90;;;;;;5038441;28;20466;-64
2023/03/03 05:05:41;;;;;;;31.83;15.03;;;-0.40;99.90;;;;;;5038626;28;20574;-65
2023/03/03 05:08:08;;;;;;;30.00;14.87;;;-0.30;99.90;;;;;;5038620;28;20460;-64
2023/03/03 05:10:35;;;;;;;33.70;15.50;;;-0.40;99.90;;;;;;5038643;28;20548;-64
2023/03/03 05:13:02;;;;;;;31.03;15.57;;;-0.40;99.90;;;;;;5038517;28;20843;-64
2023/03/03 05:15:29;;;;;;;29.20;15.27;;;-0.40;99.90;;;;;;5038231;28;20490;-64
2023/03/03 05:17:57;;;;;;;24.83;13.13;;;-0.40;99.90;;;;;;5038480;28;20471;-62
2023/03/03 05:20:25;;;;;;;24.20;12.97;;;-0.50;99.90;;;;;;5038470;28;20557;-64
2023/03/03 05:22:52;;;;;;;27.27;14.00;;;-0.70;99.90;;;;;;5038474;28;20452;-64
2023/03/03 05:25:20;;;;;;;34.40;14.50;;;-0.60;99.90;;;;;;5038498;28;20611;-64
2023/03/03 05:27:47;;;;;;;30.83;14.53;;;-0.80;99.90;;;;;;5038095;28;20455;-63
2023/03/03 05:30:14;;;;;;;31.90;15.13;;;-0.80;99.90;;;;;;5038005;28;20547;-64
2023/03/03 05:32:41;;;;;;;28.70;14.90;;;-0.80;99.90;;;;;;5038139;28;20491;-63
2023/03/03 05:35:10;;;;;;;42.63;16.73;;;-0.70;99.90;;;;;;5038803;28;20519;-62
2023/03/03 05:37:38;;;;;;;39.60;18.77;;;-0.50;99.90;;;;;;5038640;28;20555;-63
2023/03/03 05:40:07;;;;;;;31.77;15.10;;;-0.50;99.90;;;;;;5038584;28;20460;-64
2023/03/03 05:42:33;;;;;;;34.33;16.00;;;-0.40;99.90;;;;;;5038913;28;20547;-64
2023/03/03 05:45:00;;;;;;;36.13;17.43;;;-0.40;99.90;;;;;;5039422;28;20480;-63
2023/03/03 05:47:27;;;;;;;40.17;17.90;;;-0.40;99.90;;;;;;5039048;28;20539;-63
2023/03/03 05:49:54;;;;;;;34.00;15.60;;;-0.40;99.90;;;;;;5038531;28;20547;-63
2023/03/03 05:52:23;;;;;;;36.23;16.07;;;-0.40;99.90;;;;;;5038309;28;20456;-65
2023/03/03 05:54:50;;;;;;;32.70;15.40;;;-0.40;99.90;;;;;;5037862;28;20456;-64
2023/03/03 05:57:16;;;;;;;30.93;15.70;;;-0.50;99.90;;;;;;5038150;28;20551;-64
2023/03/03 05:59:43;;;;;;;33.10;15.30;;;-0.40;99.90;;;;;;5037803;28;20462;-65
2023/03/03 06:02:10;;;;;;;34.63;13.97;;;-0.50;99.90;;;;;;5037904;28;20466;-64
2023/03/03 06:04:37;;;;;;;28.70;14.87;;;-0.70;99.90;;;;;;5037560;28;20974;-64
2023/03/03 06:07:04;;;;;;;41.77;15.83;;;-0.70;99.90;;;;;;5037813;28;20468;-64
2023/03/03 06:09:32;;;;;;;45.27;14.50;;;-0.60;99.90;;;;;;5037280;28;20456;-63
2023/03/03 06:11:59;;;;;;;41.10;15.23;;;-0.60;99.90;;;;;;5037338;28;20841;-64
2023/03/03 06:14:26;;;;;;;29.03;14.17;;;-0.70;99.90;;;;;;5037230;28;20848;-62
2023/03/03 06:16:53;;;;;;;33.90;14.03;;;-0.70;99.90;;;;;;5037509;28;20456;-63
2023/03/03 06:19:19;;;;;;;31.20;13.70;;;-0.70;99.90;;;;;;5037299;28;20459;-64
2023/03/03 06:21:46;;;;;;;24.50;12.63;;;-0.60;99.90;;;;;;5037428;28;20812;-64
2023/03/03 06:24:13;;;;;;;21.97;12.93;;;-0.60;99.90;;;;;;5037438;28;20550;-64
2023/03/03 06:26:42;;;;;;;25.90;14.47;;;-0.70;99.90;;;;;;5037154;28;20480;-62
2023/03/03 06:29:08;;;;;;;24.30;13.10;;;-0.70;99.90;;;;;;5037516;28;20460;-63
2023/03/03 06:31:35;;;;;;;28.47;12.37;;;-0.80;99.90;;;;;;5037236;28;20460;-62
2023/03/03 06:34:02;;;;;;;27.57;14.10;;;-0.80;99.90;;;;;;5037154;28;20452;-63
2023/03/03 06:36:29;;;;;;;30.43;13.77;;;-0.80;99.90;;;;;;5037239;28;20488;-65
2023/03/03 06:38:56;;;;;;;23.43;12.00;;;-0.90;99.90;;;;;;5036761;28;20783;-63
2023/03/03 06:41:23;;;;;;;35.63;12.60;;;-0.90;99.90;;;;;;5036943;28;20538;-63
2023/03/03 06:43:51;;;;;;;26.73;12.53;;;-0.90;99.90;;;;;;5037029;28;20836;-63
2023/03/03 06:46:18;;;;;;;31.40;13.43;;;-0.90;99.90;;;;;;5036692;28;20484;-63
2023/03/03 06:48:45;;;;;;;22.30;11.90;;;-0.90;99.90;;;;;;5036478;28;20551;-63
2023/03/03 06:51:23;;;;;;;25.83;12.93;;;-0.90;99.90;;;;;;5036625;28;20456;-64
2023/03/03 06:53:54;;;;;;;28.90;11.20;;;-0.80;99.90;;;;;;5036616;28;20877;-62
2023/03/03 06:56:20;;;;;;;30.00;13.00;;;-0.70;99.90;;;;;;5036752;28;20441;-63
2023/03/03 06:58:48;;;;;;;35.63;14.67;;;-0.80;99.90;;;;;;5036797;28;20567;-64
2023/03/03 07:01:17;;;;;;;24.97;11.77;;;-0.70;99.90;;;;;;5036532;28;20555;-63
2023/03/03 07:03:45;;;;;;;24.70;12.33;;;-0.70;99.90;;;;;;5036240;28;21004;-63
2023/03/03 07:06:23;;;;;;;24.17;13.07;;;-0.70;99.90;;;;;;5036359;28;20506;-62
2023/03/03 07:08:50;;;;;;;29.10;12.40;;;-0.60;99.90;;;;;;5037074;28;20445;-64
2023/03/03 07:11:19;;;;;;;28.60;13.60;;;-0.60;99.90;;;;;;5036509;28;20478;-68
2023/03/03 07:13:48;;;;;;;33.73;12.70;;;-0.70;99.90;;;;;;5035891;28;20460;-68
2023/03/03 07:16:19;;;;;;;43.40;12.97;;;-0.80;99.90;;;;;;5036598;28;20453;-67
2023/03/03 07:18:51;;;;;;;70.70;13.83;;;-0.80;99.90;;;;;;5036601;28;20492;-68
2023/03/03 07:21:20;;;;;;;35.03;14.60;;;-0.90;99.90;;;;;;5036447;28;20532;-67
2023/03/03 07:23:49;;;;;;;38.37;13.13;;;-0.90;99.90;;;;;;5035801;28;20542;-68
2023/03/03 07:26:18;;;;;;;30.17;12.77;;;-0.90;99.90;;;;;;5035938;28;20484;-68
2023/03/03 07:28:54;;;;;;;36.37;14.67;;;-0.90;99.90;;;;;;5035943;28;20556;-68
2023/03/03 07:31:28;;;;;;;31.53;13.50;;;-0.90;99.90;;;;;;5036437;28;20444;-70
2023/03/03 07:33:56;;;;;;;37.13;15.40;;;-0.80;99.90;;;;;;5036341;28;20432;-67
2023/03/03 07:36:28;;;;;;;30.40;13.47;;;-0.70;99.90;;;;;;5036313;28;20452;-68
2023/03/03 07:38:57;;;;;;;31.47;15.20;;;-0.80;99.90;;;;;;5036296;28;20524;-69
2023/03/03 07:41:24;;;;;;;28.50;11.93;;;-0.90;99.90;;;;;;5035912;28;20951;-68
2023/03/03 07:43:53;;;;;;;29.50;13.23;;;-0.90;99.90;;;;;;5035521;28;20992;-69
2023/03/03 07:46:28;;;;;;;35.60;13.80;;;-0.80;99.90;;;;;;5036055;28;20812;-68
2023/03/03 07:48:56;;;;;;;34.80;13.53;;;-0.80;99.90;;;;;;5035912;28;20443;-67
2023/03/03 07:51:26;;;;;;;36.33;14.00;;;-0.70;99.90;;;;;;5036075;28;20793;-69
2023/03/03 07:53:54;;;;;;;30.93;14.87;;;-0.60;99.90;;;;;;5035959;28;20440;-68
2023/03/03 07:56:29;;;;;;;27.60;12.97;;;-0.60;99.90;;;;;;5035509;28;20543;-68
2023/03/03 07:58:57;;;;;;;24.00;11.00;;;-0.50;99.90;;;;;;5035987;28;20538;-68
2023/03/03 08:01:39;;;;;;;27.23;13.37;;;-0.40;99.90;;;;;;5035543;28;20462;-68
2023/03/03 08:04:29;;;;;;;29.57;11.77;;;-0.40;99.90;;;;;;5035915;28;20539;-67
2023/03/03 08:06:57;;;;;;;31.07;12.33;;;-0.50;99.90;;;;;;5030268;28;20484;-67
2023/03/03 08:09:43;;;;;;;26.20;13.20;;;-0.40;99.90;;;;;;5035412;28;20536;-67
2023/03/03 08:12:39;;;;;;;24.27;10.93;;;-0.50;99.90;;;;;;5035440;28;20462;-68
2023/03/03 08:15:17;;;;;;;26.10;11.73;;;-0.50;99.90;;;;;;5035035;28;20480;-68
2023/03/03 08:17:47;;;;;;;28.90;12.97;;;-0.40;99.90;;;;;;5035089;28;20450;-67
2023/03/03 08:20:43;;;;;;;26.90;12.00;;;-0.30;99.90;;;;;;5035366;28;20451;-69
2023/03/03 08:23:10;;;;;;;24.40;12.43;;;-0.30;99.90;;;;;;5038727;28;20447;-68
2023/03/03 08:25:37;;;;;;;32.53;13.13;;;-0.20;99.90;;;;;;5054887;28;20482;-70
2023/03/03 08:28:04;;;;;;;31.70;14.23;;;-0.30;99.90;;;;;;5055283;28;20487;-68
2023/03/03 08:30:31;;;;;;;29.00;12.00;;;-0.30;99.90;;;;;;5055166;28;20465;-68
2023/03/03 08:33:00;;;;;;;25.97;12.83;;;-0.30;99.90;;;;;;5052604;28;20455;-66
2023/03/03 08:35:27;;;;;;;22.30;11.00;;;-0.20;99.90;;;;;;5034279;28;20793;-68
2023/03/03 08:37:54;;;;;;;23.30;10.37;;;-0.30;99.90;;;;;;5034277;28;20476;-68
2023/03/03 08:40:21;;;;;;;30.97;11.80;;;-0.20;99.90;;;;;;5034419;28;20491;-69
2023/03/03 08:42:48;;;;;;;24.57;12.10;;;-0.30;99.90;;;;;;5034733;28;20721;-68
2023/03/03 08:45:15;;;;;;;25.10;10.87;;;-0.20;99.90;;;;;;5035814;28;20558;-67
2023/03/03 08:47:43;;;;;;;21.60;11.77;;;-0.10;99.90;;;;;;5034710;28;20951;-67
2023/03/03 08:50:13;;;;;;;20.07;10.53;;;-0.10;99.90;;;;;;5035146;28;20460;-68
2023/03/03 08:52:40;;;;;;;23.33;11.07;;;-0.10;99.90;;;;;;5034965;28;20463;-67
2023/03/03 08:55:07;;;;;;;22.10;10.63;;;-0.20;99.90;;;;;;5035041;28;20541;-68
2023/03/03 08:57:34;;;;;;;20.87;10.00;;;-0.10;99.90;;;;;;5034600;28;20495;-66
2023/03/03 09:00:01;;;;;;;20.43;9.50;;;-0.20;99.90;;;;;;5035213;28;20785;-67
2023/03/03 09:02:28;;;;;;;23.40;10.03;;;-0.20;99.90;;;;;;5035342;28;20456;-64
2023/03/03 09:04:55;;;;;;;18.33;9.33;;;-0.10;99.90;;;;;;5034641;28;20550;-65
2023/03/03 09:07:23;;;;;;;18.67;10.20;;;0.00;99.90;;;;;;5034367;28;20480;-64
2023/03/03 09:09:50;;;;;;;19.47;10.50;;;0.10;99.90;;;;;;5034706;28;20459;-66
2023/03/03 09:12:19;;;;;;;21.37;10.70;;;0.10;99.90;;;;;;5034523;28;20759;-65
2023/03/03 09:14:47;;;;;;;19.63;10.37;;;0.20;99.90;;;;;;5034277;28;20483;-65
2023/03/03 09:17:30;;;;;;;19.70;9.97;;;0.30;99.90;;;;;;5034157;28;20452;-65
2023/03/03 09:20:02;;;;;;;17.50;10.13;;;0.30;99.90;;;;;;5032306;28;20471;-65
2023/03/03 09:22:36;;;;;;;19.20;9.20;;;0.40;99.90;;;;;;5034473;28;20539;-65
2023/03/03 09:25:19;;;;;;;21.20;10.37;;;0.50;99.90;;;;;;5034714;28;20450;-66
2023/03/03 09:27:46;;;;;;;23.53;11.03;;;0.60;99.90;;;;;;5034782;28;20793;-65
2023/03/03 09:30:28;;;;;;;17.07;9.40;;;0.50;99.90;;;;;;5034287;28;20474;-65
2023/03/03 09:32:57;;;;;;;17.17;9.50;;;0.50;99.90;;;;;;5034575;28;20881;-66
2023/03/03 09:35:36;;;;;;;19.70;10.73;;;0.40;99.90;;;;;;5034459;28;20455;-63
2023/03/03 09:38:20;;;;;;;19.50;10.70;;;0.50;99.90;;;;;;5034476;28;20538;-63
2023/03/03 09:41:00;;;;;;;19.90;9.10;;;0.50;99.90;;;;;;5034494;28;20474;-63
2023/03/03 09:43:37;;;;;;;16.80;8.70;;;0.50;99.90;;;;;;5034752;28;20537;-64
2023/03/03 09:46:12;;;;;;;16.70;9.80;;;0.50;99.90;;;;;;5034527;28;20468;-64
2023/03/03 09:48:56;;;;;;;15.93;8.60;;;0.50;99.90;;;;;;5038484;28;20820;-65
2023/03/03 09:51:43;;;;;;;19.17;11.00;;;0.60;99.90;;;;;;5037866;28;20432;-64
2023/03/03 09:54:29;;;;;;;16.47;9.97;;;0.70;99.90;;;;;;5021106;28;20638;-64
2023/03/03 09:57:08;;;;;;;17.63;9.60;;;0.80;99.90;;;;;;5038280;28;20809;-65
2023/03/03 09:59:49;;;;;;;21.73;11.00;;;1.00;99.90;;;;;;5037937;28;20440;-65
2023/03/03 10:02:35;;;;;;;21.83;10.57;;;1.10;99.90;;;;;;5038240;28;20527;-65
2023/03/03 10:05:25;;;;;;;20.03;10.57;;;1.00;99.90;;;;;;5038150;28;20759;-64
2023/03/03 10:08:03;;;;;;;21.10;11.30;;;1.00;99.90;;;;;;5037862;28;20500;-65
2023/03/03 10:11:00;;;;;;;16.93;9.37;;;1.00;99.90;;;;;;5037964;28;20523;-65
2023/03/03 10:13:46;;;;;;;22.57;12.30;;;1.10;99.90;;;;;;5037675;28;20487;-64
2023/03/03 10:16:37;;;;;;;18.30;11.30;;;1.00;99.90;;;;;;5037729;28;20798;-65
2023/03/03 10:19:14;;;;;;;14.83;8.80;;;1.00;99.90;;;;;;5038062;28;20463;-65
2023/03/03 10:21:48;;;;;;;20.50;11.77;;;1.10;99.90;;;;;;5037763;28;20443;-64
2023/03/03 10:24:26;;;;;;;19.33;12.07;;;1.10;99.90;;;;;;5037252;28;20782;-63
2023/03/03 10:27:15;;;;;;;20.17;10.53;;;1.10;99.90;;;;;;5037094;28;20478;-63
2023/03/03 10:29:52;;;;;;;21.40;9.90;;;1.00;99.90;;;;;;5036964;28;20464;-65
2023/03/03 10:32:37;;;;;;;18.60;10.07;;;1.00;99.90;;;;;;5037267;28;20436;-64
2023/03/03 10:35:21;;;;;;;27.77;14.80;;;0.90;99.90;;;;;;5037102;28;20531;-65
2023/03/03 10:37:59;;;;;;;29.83;14.57;;;0.90;99.90;;;;;;5037553;28;20451;-65
2023/03/03 10:40:33;;;;;;;22.30;12.13;;;1.00;99.90;;;;;;5037093;28;20498;-65
2023/03/03 10:43:38;;;;;;;21.60;12.57;;;1.20;99.90;;;;;;5037283;28;20472;-64
2023/03/03 10:46:25;;;;;;;19.80;11.23;;;1.20;99.90;;;;;;5023264;28;20839;-65
2023/03/03 10:49:09;;;;;;;19.37;11.17;;;1.20;99.90;;;;;;5037345;28;20444;-65
2023/03/03 10:51:46;;;;;;;19.20;11.50;;;1.20;99.90;;;;;;5036764;28;20444;-65
2023/03/03 10:54:29;;;;;;;21.80;11.87;;;1.30;99.90;;;;;;5036624;28;20443;-65
2023/03/03 10:57:02;;;;;;;19.70;11.33;;;1.30;99.90;;;;;;5037351;28;20448;-65
2023/03/03 10:59:40;;;;;;;23.50;12.20;;;1.30;99.90;;;;;;5035562;28;20444;-65
2023/03/03 11:02:17;;;;;;;18.90;11.53;;;1.40;99.90;;;;;;5036680;28;20547;-65
2023/03/03 11:04:58;;;;;;;24.07;12.23;;;1.50;99.90;;;;;;5036560;28;20448;-64
2023/03/03 11:07:31;;;;;;;21.77;13.73;;;1.70;99.90;;;;;;5036361;28;20468;-65
2023/03/03 11:10:11;;;;;;;24.23;14.03;;;1.90;99.90;;;;;;5036408;28;20787;-63
2023/03/03 11:12:49;;;;;;;21.70;12.33;;;2.00;99.90;;;;;;5036072;28;20450;-66
2023/03/03 11:15:42;;;;;;;22.10;11.03;;;2.00;99.90;;;;;;5036975;28;20488;-65
2023/03/03 11:18:21;;;;;;;19.30;11.60;;;1.90;99.90;;;;;;5032798;28;20452;-64
2023/03/03 11:20:56;;;;;;;22.87;11.80;;;1.70;99.90;;;;;;5036090;28;20450;-64
2023/03/03 11:23:42;;;;;;;23.23;11.27;;;1.60;99.90;;;;;;5035761;28;20439;-64
2023/03/03 11:26:13;;;;;;;23.03;12.83;;;1.60;99.90;;;;;;5036106;28;20455;-65
2023/03/03 11:29:02;;;;;;;26.33;13.03;;;1.70;99.90;;;;;;5036162;28;20502;-66
2023/03/03 11:31:38;;;;;;;25.13;13.97;;;1.60;99.90;;;;;;5036073;28;20537;-68
2023/03/03 11:34:17;;;;;;;27.67;14.50;;;1.60;99.90;;;;;;5035459;28;20630;-67
2023/03/03 11:36:49;;;;;;;26.57;12.60;;;1.70;99.90;;;;;;5035616;28;20436;-66
2023/03/03 11:39:18;;;;;;;23.00;13.20;;;1.80;99.90;;;;;;5036198;28;20527;-67
2023/03/03 11:42:00;;;;;;;30.70;14.60;;;2.00;99.90;;;;;;5035733;28;20491;-66
2023/03/03 11:44:31;;;;;;;26.60;13.27;;;2.10;99.90;;;;;;5035799;28;20447;-67
2023/03/03 11:47:03;;;;;;;25.30;13.30;;;2.20;99.90;;;;;;5035538;28;20478;-66
2023/03/03 11:49:36;;;;;;;32.37;14.77;;;2.30;99.90;;;;;;5035695;28;20472;-69
2023/03/03 11:52:14;;;;;;;22.53;12.20;;;2.30;99.90;;;;;;5035378;28;20450;-67
2023/03/03 11:54:48;;;;;;;27.80;14.80;;;2.40;99.90;;;;;;5035405;28;20466;-67
2023/03/03 11:57:21;;;;;;;25.23;14.20;;;2.40;99.90;;;;;;5035822;28;20956;-68
2023/03/03 12:00:04;;;;;;;26.80;13.80;;;2.30;99.90;;;;;;5036040;28;20536;-67
2023/03/03 12:03:02;;;;;;;23.17;12.37;;;2.30;99.90;;;;;;5035661;28;20455;-67
2023/03/03 12:05:44;;;;;;;24.47;12.27;;;2.10;99.90;;;;;;5035509;28;20523;-67
2023/03/03 12:08:37;;;;;;;26.10;13.20;;;2.00;99.90;;;;;;5035452;28;20562;-67
2023/03/03 12:11:13;;;;;;;31.33;14.37;;;2.00;99.90;;;;;;5035174;28;20487;-66
2023/03/03 12:13:51;;;;;;;23.00;13.50;;;2.00;99.90;;;;;;5035596;28;20444;-66
2023/03/03 12:16:26;;;;;;;29.97;14.83;;;2.10;99.90;;;;;;5035456;28;20451;-65
2023/03/03 12:19:29;;;;;;;24.63;13.87;;;2.20;99.90;;;;;;5035780;28;20847;-67
2023/03/03 12:22:13;;;;;;;26.50;13.73;;;2.40;99.90;;;;;;4988402;28;20459;-67
2023/03/03 12:24:54;;;;;;;25.60;13.60;;;2.50;99.90;;;;;;5035065;28;20454;-67
2023/03/03 12:27:27;;;;;;;31.37;13.67;;;2.50;99.90;;;;;;5034147;28;20464;-67
2023/03/03 12:30:05;;;;;;;23.97;13.23;;;2.40;99.90;;;;;;5034375;28;20440;-66
2023/03/03 12:32:48;;;;;;;27.23;12.87;;;2.40;99.90;;;;;;5034434;28;20455;-67
2023/03/03 12:35:24;;;;;;;27.83;13.33;;;2.40;99.90;;;;;;5034606;28;20455;-67
2023/03/03 12:37:58;;;;;;;22.63;13.50;;;2.40;99.90;;;;;;5034371;28;20535;-67
2023/03/03 12:40:29;;;;;;;26.13;14.30;;;2.40;99.90;;;;;;5034457;28;20466;-67
2023/03/03 12:43:19;;;;;;;25.93;14.60;;;2.40;99.90;;;;;;5034082;28;20539;-67
2023/03/03 12:45:56;;;;;;;29.80;15.03;;;2.50;99.90;;;;;;5034851;28;20768;-68
2023/03/03 12:48:30;;;;;;;32.40;16.13;;;2.60;99.90;;;;;;5034678;28;20478;-68
2023/03/03 12:51:05;;;;;;;30.93;17.37;;;2.50;99.90;;;;;;5034679;28;20444;-67
2023/03/03 12:53:52;;;;;;;24.27;13.40;;;2.40;99.90;;;;;;5034503;28;20439;-67
2023/03/03 12:56:27;;;;;;;26.90;13.87;;;2.30;99.90;;;;;;5034044;28;20907;-67